Ravenel, South Carolina
Current Conditions -  °F | °C
As of 11:15 AM on Thursday 27 Nov 2014 (Local Time) from KJZI Reporting Station
Clear Clear  
Wind Chill: 55°   Ceiling: Unl
Heat Index: 55°   Visibility: 10mi
Dew Point: 39°   Wind: 14mph
Humidity: 54%   Direction: 300°WNW
Pressure: 30.14"   Gusts: 24mph
Location:  32.76°N, 80.25°W
Report Text: KJZI 271615Z AUTO 30012G21KT 10SM CLR 13/04 A3014 RMK A02 P000
Loading
Personal Weather Stations






























Interactive Weather Map New forecast layout! Learn more

10-Day Weather Forecast

Advertisements
Track Severe Weather on mobile